Time;durP1;ratioP1;P1;durP2;ratioP2;P2;SDS_P1;SDS_P2;PMS_P1;PMS_P2;Temp;Humidity;BMP_temperature;BMP_pressure;BME280_temperature;BME280_humidity;BME280_pressure;Samples;Min_cycle;Max_cycle;Signal;HPM_P1;HPM_P2
2020/12/10 00:02:14;;;;;;;25.05;17.55;;;2.00;99.90;;;;;;5074382;28;20028;-91
2020/12/10 00:04:39;;;;;;;26.40;17.65;;;1.90;99.90;;;;;;5073890;28;20029;-91
2020/12/10 00:07:06;;;;;;;23.92;17.80;;;1.80;99.90;;;;;;5073784;28;20032;-91
2020/12/10 00:09:33;;;;;;;24.45;17.45;;;1.70;99.90;;;;;;5073846;28;20086;-91
2020/12/10 00:12:03;;;;;;;27.45;17.42;;;1.60;99.90;;;;;;5073704;28;20400;-90
2020/12/10 00:14:28;;;;;;;24.50;16.77;;;2.20;99.90;;;;;;5080441;28;20032;-91
2020/12/10 00:16:54;;;;;;;24.35;17.50;;;1.70;99.90;;;;;;5079798;28;20020;-90
2020/12/10 00:19:19;;;;;;;21.67;16.80;;;1.60;99.90;;;;;;5081077;28;20012;-91
2020/12/10 00:21:45;;;;;;;24.02;16.73;;;1.70;99.90;;;;;;5093173;28;20047;-90
2020/12/10 00:24:11;;;;;;;25.40;17.25;;;1.60;99.90;;;;;;5093614;28;20488;-91
2020/12/10 00:26:37;;;;;;;26.27;18.65;;;1.70;99.90;;;;;;5083442;28;20036;-90
2020/12/10 00:29:02;;;;;;;23.92;17.30;;;1.90;99.90;;;;;;5080870;28;20025;-90
2020/12/10 00:31:28;;;;;;;24.98;17.60;;;1.90;99.90;;;;;;5083081;28;20036;-90
2020/12/10 00:33:54;;;;;;;21.77;15.80;;;1.80;99.90;;;;;;5082224;28;20016;-90
2020/12/10 00:36:19;;;;;;;25.42;16.45;;;1.80;99.90;;;;;;5081727;28;20054;-91
2020/12/10 00:38:45;;;;;;;23.88;16.30;;;2.10;99.90;;;;;;5081547;28;20036;-90
2020/12/10 00:41:11;;;;;;;25.17;16.30;;;2.20;99.90;;;;;;5073259;28;20476;-90
2020/12/10 00:43:36;;;;;;;22.85;16.85;;;1.60;99.90;;;;;;5090128;28;20020;-91
2020/12/10 00:46:06;;;;;;;27.27;18.10;;;2.10;99.90;;;;;;5087876;28;20537;-90
2020/12/10 00:48:35;;;;;;;26.27;17.02;;;1.60;99.90;;;;;;5088013;28;20459;-91
2020/12/10 00:54:23;;;;;;;32.25;22.15;;;1.60;99.90;;;;;;5074532;28;20032;-91
2020/12/10 00:57:03;;;;;;;26.33;18.58;;;1.70;99.90;;;;;;5083677;28;20021;-92
2020/12/10 00:59:28;;;;;;;27.67;18.23;;;2.20;99.90;;;;;;5086866;28;20055;-90
2020/12/10 01:05:16;;;;;;;24.33;17.17;;;1.70;99.90;;;;;;5082878;28;20124;-89
2020/12/10 01:08:06;;;;;;;23.45;16.95;;;2.20;99.90;;;;;;5094408;28;20087;-89
2020/12/10 01:10:32;;;;;;;23.05;15.85;;;1.60;99.90;;;;;;5093088;28;20088;-89
2020/12/10 01:12:58;;;;;;;25.92;16.98;;;1.70;99.90;;;;;;5077971;28;20496;-90
2020/12/10 01:15:24;;;;;;;23.80;16.90;;;2.20;99.90;;;;;;5072845;28;20484;-90
2020/12/10 01:17:50;;;;;;;23.65;16.02;;;1.60;99.90;;;;;;5072973;28;20021;-89
2020/12/10 01:20:15;;;;;;;23.80;16.23;;;1.60;99.90;;;;;;5077221;28;20021;-90
2020/12/10 01:22:41;;;;;;;24.25;16.55;;;1.70;99.90;;;;;;5072894;28;20105;-89
2020/12/10 01:25:07;;;;;;;23.75;17.25;;;1.90;99.90;;;;;;5072532;28;20561;-90
2020/12/10 01:27:32;;;;;;;30.02;17.70;;;2.00;99.90;;;;;;5072831;28;20047;-90
2020/12/10 01:29:58;;;;;;;27.95;18.55;;;1.50;99.90;;;;;;5072709;28;20021;-90
2020/12/10 01:32:25;;;;;;;40.08;26.25;;;1.60;99.90;;;;;;5073334;28;20051;-89
2020/12/10 01:34:52;;;;;;;37.05;22.98;;;1.70;99.90;;;;;;5074767;28;20077;-89
2020/12/10 01:37:21;;;;;;;28.58;19.50;;;2.20;99.90;;;;;;5079531;28;20028;-89
2020/12/10 01:39:46;;;;;;;25.85;18.67;;;1.70;99.90;;;;;;5079026;28;20039;-89
2020/12/10 01:42:12;;;;;;;26.60;18.27;;;1.70;99.90;;;;;;5074357;28;20073;-89
2020/12/10 01:44:38;;;;;;;25.33;17.25;;;1.80;99.90;;;;;;5092849;28;20099;-90
2020/12/10 01:47:05;;;;;;;24.17;17.05;;;1.80;99.90;;;;;;5082107;28;20074;-89
2020/12/10 01:49:34;;;;;;;25.73;16.67;;;1.70;99.90;;;;;;5072140;28;20021;-89
2020/12/10 01:52:00;;;;;;;23.70;16.75;;;1.60;99.90;;;;;;5084562;28;20123;-90
2020/12/10 01:54:26;;;;;;;25.55;17.65;;;1.60;99.90;;;;;;5092297;28;20052;-89
2020/12/10 01:56:55;;;;;;;22.98;16.42;;;1.50;99.90;;;;;;5091705;28;20028;-90
2020/12/10 01:59:22;;;;;;;23.65;16.17;;;2.30;99.90;;;;;;5089661;28;20020;-90
2020/12/10 02:01:49;;;;;;;23.20;16.20;;;1.80;99.90;;;;;;5072007;28;20035;-89
2020/12/10 02:04:28;;;;;;;23.25;15.93;;;1.60;99.90;;;;;;5071547;28;20532;-89
2020/12/10 02:06:55;;;;;;;24.70;16.95;;;1.40;99.90;;;;;;5072859;28;20043;-90
2020/12/10 02:09:21;;;;;;;23.58;16.42;;;1.40;99.90;;;;;;5074670;28;20025;-90
2020/12/10 02:11:47;;;;;;;22.73;15.77;;;1.40;99.90;;;;;;5078131;28;20500;-90
2020/12/10 02:14:13;;;;;;;24.10;16.13;;;1.30;99.90;;;;;;5071740;28;20020;-90
2020/12/10 02:16:38;;;;;;;24.10;15.70;;;1.20;99.90;;;;;;5071901;28;20029;-89
2020/12/10 02:19:04;;;;;;;23.80;16.48;;;1.40;99.90;;;;;;5071813;28;20108;-89
2020/12/10 02:21:30;;;;;;;23.02;16.42;;;0.80;99.90;;;;;;5071861;28;20036;-89
2020/12/10 02:23:57;;;;;;;22.65;16.00;;;0.90;99.90;;;;;;5071908;28;20021;-90
2020/12/10 02:26:24;;;;;;;24.05;16.27;;;1.00;99.90;;;;;;5077861;28;20024;-89
2020/12/10 02:28:49;;;;;;;20.77;15.38;;;0.90;99.90;;;;;;5084548;28;20047;-89
2020/12/10 02:31:26;;;;;;;22.13;15.63;;;0.90;99.90;;;;;;5092041;28;20032;-89
2020/12/10 02:34:01;;;;;;;24.95;15.57;;;1.00;99.90;;;;;;5077889;28;20059;-89
2020/12/10 02:36:27;;;;;;;25.35;16.20;;;1.00;99.90;;;;;;5071586;28;20476;-90
2020/12/10 02:38:53;;;;;;;21.55;15.30;;;1.40;99.90;;;;;;5071769;28;20098;-89
2020/12/10 02:41:18;;;;;;;22.23;15.52;;;1.10;99.90;;;;;;5083400;28;20033;-90
2020/12/10 02:43:45;;;;;;;21.08;14.68;;;0.80;99.90;;;;;;5079056;28;20032;-90
2020/12/10 02:46:10;;;;;;;23.23;15.77;;;1.30;99.90;;;;;;5083040;28;20025;-89
2020/12/10 02:48:36;;;;;;;23.63;15.82;;;0.90;99.90;;;;;;5075411;28;20031;-89
2020/12/10 02:51:02;;;;;;;23.02;15.13;;;0.80;99.90;;;;;;5081231;28;20046;-90
2020/12/10 02:53:29;;;;;;;22.23;15.05;;;0.90;99.90;;;;;;5079713;28;20484;-90
2020/12/10 02:55:54;;;;;;;22.65;15.00;;;0.80;99.90;;;;;;5074938;28;20026;-89
2020/12/10 02:58:22;;;;;;;22.05;15.40;;;0.80;99.90;;;;;;5079976;28;20024;-90
2020/12/10 03:00:47;;;;;;;21.73;14.55;;;0.80;99.90;;;;;;5095133;28;20500;-90
2020/12/10 03:03:13;;;;;;;22.95;15.55;;;1.30;99.90;;;;;;5094420;28;20063;-89
2020/12/10 03:05:39;;;;;;;21.88;15.85;;;1.30;99.90;;;;;;5083943;28;20120;-90
2020/12/10 03:08:04;;;;;;;21.05;15.45;;;0.80;99.90;;;;;;5082992;28;20497;-89
2020/12/10 03:10:30;;;;;;;23.67;15.52;;;0.80;99.90;;;;;;5087861;28;20032;-89
2020/12/10 03:12:56;;;;;;;22.98;15.40;;;0.80;99.90;;;;;;5074963;28;20039;-90
2020/12/10 03:15:22;;;;;;;24.05;16.05;;;0.70;99.90;;;;;;5074970;28;20024;-90
2020/12/10 03:17:49;;;;;;;25.80;15.68;;;0.70;99.90;;;;;;5078019;28;20025;-90
2020/12/10 03:20:16;;;;;;;22.83;16.20;;;0.70;99.90;;;;;;5085812;28;20506;-90
2020/12/10 03:22:42;;;;;;;24.45;14.95;;;0.70;99.90;;;;;;5091518;28;20020;-89
2020/12/10 03:25:08;;;;;;;26.23;16.50;;;0.80;99.90;;;;;;5085156;28;20097;-90
2020/12/10 03:27:34;;;;;;;23.50;16.33;;;1.30;99.90;;;;;;5074667;28;20377;-89
2020/12/10 03:30:00;;;;;;;21.48;15.93;;;1.00;99.90;;;;;;5079617;28;20024;-90
2020/12/10 03:32:25;;;;;;;22.30;15.48;;;0.70;99.90;;;;;;5094627;28;20028;-90
2020/12/10 03:34:51;;;;;;;26.13;15.93;;;0.70;99.90;;;;;;5094497;28;20035;-90
2020/12/10 03:37:17;;;;;;;25.30;15.27;;;1.20;99.90;;;;;;5094212;28;20046;-90
2020/12/10 03:39:42;;;;;;;24.42;15.90;;;1.10;99.90;;;;;;5090370;28;20021;-90
2020/12/10 03:42:08;;;;;;;23.80;16.02;;;0.40;99.90;;;;;;5076601;28;20023;-90
2020/12/10 03:44:33;;;;;;;23.90;16.85;;;0.30;99.90;;;;;;5094201;28;20032;-89
2020/12/10 03:46:59;;;;;;;23.70;15.52;;;0.50;99.90;;;;;;5077437;28;20074;-90
2020/12/10 03:49:25;;;;;;;25.77;16.70;;;1.00;99.90;;;;;;5057235;28;20119;-90
2020/12/10 03:51:51;;;;;;;22.60;16.00;;;0.40;99.90;;;;;;5079929;28;20034;-90
2020/12/10 03:54:16;;;;;;;23.92;15.15;;;0.40;99.90;;;;;;5090177;28;20490;-90
2020/12/10 03:56:42;;;;;;;21.92;15.07;;;0.60;99.90;;;;;;5085389;28;20072;-90
2020/12/10 03:59:08;;;;;;;21.27;14.43;;;0.50;99.90;;;;;;5077257;28;20021;-90
2020/12/10 04:01:34;;;;;;;22.15;15.18;;;0.40;99.90;;;;;;5093462;28;20108;-89
2020/12/10 04:04:00;;;;;;;19.83;13.25;;;0.80;99.90;;;;;;5094084;28;20028;-90
2020/12/10 04:06:26;;;;;;;21.92;14.52;;;0.40;99.90;;;;;;5093895;28;20028;-90
2020/12/10 04:08:52;;;;;;;21.70;14.95;;;0.40;99.90;;;;;;5094157;28;20027;-90
2020/12/10 04:11:18;;;;;;;25.63;15.10;;;0.40;99.90;;;;;;5076131;28;20059;-90
2020/12/10 04:13:43;;;;;;;24.10;15.13;;;0.40;99.90;;;;;;5073638;28;20567;-90
2020/12/10 04:16:11;;;;;;;21.48;14.18;;;0.80;99.90;;;;;;5075388;28;20082;-90
2020/12/10 04:18:39;;;;;;;19.75;14.00;;;0.70;99.90;;;;;;5092315;28;20024;-90
2020/12/10 04:21:08;;;;;;;21.40;14.13;;;0.40;99.90;;;;;;5069967;28;20027;-90
2020/12/10 04:23:35;;;;;;;22.00;14.07;;;0.50;99.90;;;;;;5088412;28;20044;-90
2020/12/10 04:26:02;;;;;;;20.60;14.10;;;0.50;99.90;;;;;;5073160;28;20158;-90
2020/12/10 04:28:27;;;;;;;18.80;12.82;;;0.50;99.90;;;;;;5056787;28;20116;-90
2020/12/10 04:30:53;;;;;;;18.70;13.32;;;0.40;99.90;;;;;;5073286;28;20123;-90
2020/12/10 04:33:19;;;;;;;19.67;13.65;;;0.50;99.90;;;;;;5073405;28;20025;-90
2020/12/10 04:35:45;;;;;;;19.98;13.60;;;0.40;99.90;;;;;;5058196;28;20017;-90
2020/12/10 04:38:11;;;;;;;20.13;13.30;;;0.50;99.90;;;;;;5077886;28;20135;-90
2020/12/10 04:40:37;;;;;;;17.95;12.52;;;0.80;99.90;;;;;;5079445;28;20020;-90
2020/12/10 04:43:08;;;;;;;19.52;12.45;;;0.40;99.90;;;;;;5073977;28;20097;-90
2020/12/10 04:45:35;;;;;;;18.65;12.45;;;1.00;99.90;;;;;;5087239;28;20035;-90
2020/12/10 04:48:01;;;;;;;17.88;12.05;;;0.50;99.90;;;;;;5089499;28;20092;-90
2020/12/10 04:50:31;;;;;;;18.38;11.75;;;0.40;99.90;;;;;;5083217;28;20028;-90
2020/12/10 04:52:57;;;;;;;17.08;11.90;;;0.90;99.90;;;;;;5077417;28;20024;-89
2020/12/10 04:55:23;;;;;;;18.17;12.65;;;0.40;99.90;;;;;;5093109;28;20012;-90
2020/12/10 04:57:52;;;;;;;17.73;12.30;;;0.40;99.90;;;;;;5077400;28;20050;-89
2020/12/10 05:00:19;;;;;;;18.52;12.13;;;0.50;99.90;;;;;;5072934;28;20384;-90
2020/12/10 05:02:45;;;;;;;15.98;11.70;;;0.60;99.90;;;;;;5072416;28;20153;-90
2020/12/10 05:05:27;;;;;;;17.15;12.13;;;0.80;99.90;;;;;;5073004;28;20032;-90
2020/12/10 05:07:55;;;;;;;21.02;11.93;;;0.30;99.90;;;;;;5089013;28;20024;-90
2020/12/10 05:10:21;;;;;;;19.45;12.80;;;0.60;99.90;;;;;;5092693;28;20492;-90
2020/12/10 05:12:47;;;;;;;17.92;11.95;;;0.30;99.90;;;;;;5092384;28;20051;-90
2020/12/10 05:15:18;;;;;;;17.88;12.63;;;0.30;99.90;;;;;;5087078;28;20400;-90
2020/12/10 05:17:44;;;;;;;17.33;12.18;;;0.30;99.90;;;;;;5080542;28;20507;-90
2020/12/10 05:20:10;;;;;;;17.23;11.68;;;0.30;99.90;;;;;;5072641;28;20028;-90
2020/12/10 05:22:44;;;;;;;16.58;11.73;;;0.30;99.90;;;;;;5072324;28;20024;-90
2020/12/10 05:25:09;;;;;;;17.23;12.30;;;0.30;99.90;;;;;;5072474;28;20027;-90
2020/12/10 05:27:35;;;;;;;19.27;11.75;;;0.30;99.90;;;;;;5073336;28;20029;-90
2020/12/10 05:30:01;;;;;;;17.17;12.02;;;0.20;99.90;;;;;;5079515;28;20028;-90
2020/12/10 05:32:41;;;;;;;17.77;11.82;;;0.70;99.90;;;;;;5092692;28;20028;-90
2020/12/10 05:35:13;;;;;;;17.40;11.60;;;0.30;99.90;;;;;;5080953;28;20025;-90
2020/12/10 05:37:39;;;;;;;16.40;11.80;;;0.20;99.90;;;;;;5072440;28;20016;-90
2020/12/10 05:40:05;;;;;;;18.02;12.15;;;0.20;99.90;;;;;;5056137;28;20021;-90
2020/12/10 05:42:38;;;;;;;20.48;13.77;;;0.10;99.90;;;;;;5078971;28;20047;-90
2020/12/10 05:45:21;;;;;;;19.77;13.07;;;0.20;99.90;;;;;;5088112;28;20036;-90
2020/12/10 05:47:57;;;;;;;19.25;13.38;;;0.30;99.90;;;;;;5085412;28;20106;-90
2020/12/10 05:50:28;;;;;;;18.25;12.23;;;0.20;99.90;;;;;;5093770;28;20021;-88
2020/12/10 05:53:37;;;;;;;17.52;11.95;;;0.10;99.90;;;;;;5090864;28;20035;-90
2020/12/10 05:56:03;;;;;;;19.52;12.18;;;0.10;99.90;;;;;;5072670;28;20024;-92
2020/12/10 05:58:30;;;;;;;16.55;11.70;;;0.20;99.90;;;;;;5072389;28;20056;-94
2020/12/10 06:00:57;;;;;;;17.90;12.02;;;0.20;99.90;;;;;;5072424;28;20025;-92
2020/12/10 06:03:24;;;;;;;17.52;11.98;;;0.20;99.90;;;;;;5056185;28;20485;-92
2020/12/10 06:06:00;;;;;;;16.92;11.00;;;0.20;99.90;;;;;;5083614;28;20148;-91
2020/12/10 06:08:26;;;;;;;16.25;11.98;;;0.70;99.90;;;;;;5092950;28;20118;-92
2020/12/10 06:10:52;;;;;;;17.73;11.30;;;0.30;99.90;;;;;;5090538;28;20087;-94
2020/12/10 06:13:19;;;;;;;19.27;10.82;;;0.70;99.90;;;;;;5071933;28;20045;-92
2020/12/10 06:15:44;;;;;;;18.48;11.10;;;0.30;99.90;;;;;;5072128;28;20028;-90
2020/12/10 06:18:11;;;;;;;14.93;10.65;;;0.30;99.90;;;;;;5082966;28;20020;-88
2020/12/10 06:20:41;;;;;;;23.92;13.88;;;0.30;99.90;;;;;;5073999;28;20115;-89
2020/12/10 06:23:27;;;;;;;28.08;14.77;;;0.80;99.90;;;;;;5081822;28;20483;-90
2020/12/10 06:25:54;;;;;;;23.15;12.82;;;0.40;99.90;;;;;;5095090;28;20112;-90
2020/12/10 06:28:22;;;;;;;24.23;12.70;;;0.60;99.90;;;;;;5095033;28;20384;-89
2020/12/10 06:31:08;;;;;;;17.45;11.50;;;0.60;99.90;;;;;;5094195;28;20029;-90
2020/12/10 06:33:35;;;;;;;14.93;9.88;;;0.70;99.90;;;;;;5077021;28;20175;-90
2020/12/10 06:36:24;;;;;;;14.07;8.35;;;0.70;99.90;;;;;;5075627;28;20123;-90
2020/12/10 06:38:51;;;;;;;11.43;7.72;;;0.70;99.90;;;;;;5080514;28;20419;-90
2020/12/10 06:41:17;;;;;;;10.98;8.82;;;1.30;99.90;;;;;;5077944;28;20119;-90
2020/12/10 06:43:44;;;;;;;14.63;9.23;;;0.90;99.90;;;;;;5075297;28;20032;-90
2020/12/10 06:46:10;;;;;;;14.60;9.68;;;0.70;99.90;;;;;;5076232;28;20108;-90
2020/12/10 06:48:45;;;;;;;14.30;9.65;;;0.60;99.90;;;;;;5095559;28;20107;-89
2020/12/10 06:51:18;;;;;;;17.50;9.90;;;0.70;99.90;;;;;;5079235;28;20016;-89
2020/12/10 06:53:59;;;;;;;13.82;9.15;;;0.90;99.90;;;;;;5075877;28;20031;-89
2020/12/10 06:56:40;;;;;;;13.77;9.82;;;0.90;99.90;;;;;;5092447;28;20016;-90
2020/12/10 06:59:05;;;;;;;26.33;11.00;;;0.80;99.90;;;;;;5095116;28;20031;-89
2020/12/10 07:01:37;;;;;;;19.00;11.13;;;0.90;99.90;;;;;;5078307;28;20025;-89
2020/12/10 07:07:21;;;;;;;20.23;10.15;;;0.80;99.90;;;;;;5085653;28;20504;-89
2020/12/10 07:09:51;;;;;;;13.65;10.07;;;0.80;99.90;;;;;;5082152;28;20028;-89
2020/12/10 07:12:25;;;;;;;16.35;9.52;;;0.80;99.90;;;;;;5085684;28;20058;-89
2020/12/10 07:15:09;;;;;;;16.27;10.05;;;0.90;99.90;;;;;;5075521;28;20032;-90
2020/12/10 07:17:34;;;;;;;15.60;10.63;;;0.80;99.90;;;;;;5070540;28;20036;-90
2020/12/10 07:20:13;;;;;;;17.08;9.98;;;0.90;99.90;;;;;;5076593;28;20021;-89
2020/12/10 07:22:40;;;;;;;13.18;9.27;;;0.90;99.90;;;;;;5091052;28;20567;-90
2020/12/10 07:25:07;;;;;;;20.35;9.90;;;1.00;99.90;;;;;;5068896;28;20025;-89
2020/12/10 07:27:33;;;;;;;11.95;8.38;;;1.10;99.90;;;;;;5067807;28;20081;-89
2020/12/10 07:29:58;;;;;;;16.17;8.98;;;1.30;99.90;;;;;;5088597;28;20039;-89
2020/12/10 07:32:24;;;;;;;12.50;8.65;;;1.40;99.90;;;;;;5080532;28;20017;-90
2020/12/10 07:34:50;;;;;;;12.02;8.63;;;1.60;99.90;;;;;;5057766;28;20029;-90
2020/12/10 07:37:34;;;;;;;14.30;9.35;;;2.10;99.90;;;;;;5078211;28;20107;-89
2020/12/10 07:40:20;;;;;;;15.15;9.63;;;1.80;99.90;;;;;;5094129;28;20464;-89
2020/12/10 07:42:46;;;;;;;15.98;9.10;;;2.10;99.90;;;;;;5094362;28;20027;-90
2020/12/10 07:45:18;;;;;;;13.45;8.82;;;2.90;99.90;;;;;;5078140;28;20032;-90
2020/12/10 07:47:55;;;;;;;14.82;8.45;;;3.90;99.90;;;;;;5072014;28;20111;-89
2020/12/10 07:50:25;;;;;;;14.18;8.60;;;3.20;99.90;;;;;;5074329;28;20044;-90
2020/12/10 07:53:11;;;;;;;14.52;8.23;;;3.20;99.90;;;;;;5091389;28;20383;-89
2020/12/10 07:55:57;;;;;;;13.00;7.75;;;5.60;99.90;;;;;;5093621;28;20484;-90
2020/12/10 07:58:48;;;;;;;10.73;8.05;;;7.50;99.90;;;;;;5093819;28;20492;-90
2020/12/10 08:01:14;;;;;;;11.82;8.88;;;6.30;99.90;;;;;;5095842;28;20027;-92
2020/12/10 08:03:52;;;;;;;15.38;10.27;;;5.10;99.90;;;;;;5093727;28;20031;-91
2020/12/10 08:06:19;;;;;;;11.35;8.52;;;4.80;99.90;;;;;;5074765;28;20111;-91
2020/12/10 08:08:56;;;;;;;14.20;8.93;;;4.50;99.90;;;;;;5070583;28;20082;-92
2020/12/10 08:11:22;;;;;;;14.82;8.70;;;4.60;99.90;;;;;;5077286;28;20055;-90
2020/12/10 08:14:02;;;;;;;13.98;9.05;;;5.50;99.90;;;;;;5074308;28;20028;-95
2020/12/10 08:16:40;;;;;;;13.40;8.70;;;6.10;99.90;;;;;;5075018;28;20042;-94
2020/12/10 08:19:11;;;;;;;13.23;8.75;;;6.10;99.90;;;;;;5074858;28;20533;-90
2020/12/10 08:21:38;;;;;;;12.43;8.75;;;5.30;99.90;;;;;;5075799;28;20506;-93
2020/12/10 08:24:08;;;;;;;11.32;8.50;;;4.80;99.90;;;;;;5092987;28;20114;-95
2020/12/10 08:26:36;;;;;;;14.88;8.75;;;5.00;99.90;;;;;;5098371;28;20028;-95
2020/12/10 08:29:02;;;;;;;12.80;9.35;;;4.80;99.90;;;;;;5077585;28;20035;-96
2020/12/10 08:31:29;;;;;;;13.73;9.60;;;4.60;99.90;;;;;;5077163;28;20024;-94
2020/12/10 08:33:56;;;;;;;12.73;8.77;;;5.00;99.90;;;;;;5077164;28;20032;-94
2020/12/10 08:36:31;;;;;;;15.55;9.70;;;4.40;99.90;;;;;;5094041;28;20035;-94
2020/12/10 08:38:58;;;;;;;12.85;9.25;;;4.60;99.90;;;;;;5094059;28;20027;-94
2020/12/10 08:41:31;;;;;;;14.60;9.18;;;4.60;99.90;;;;;;5093731;28;20066;-94
2020/12/10 08:44:00;;;;;;;13.90;9.85;;;4.80;99.90;;;;;;5094580;28;20028;-94
2020/12/10 08:46:27;;;;;;;15.02;9.63;;;5.40;99.90;;;;;;5093785;28;20387;-94
2020/12/10 08:48:55;;;;;;;12.32;9.95;;;6.80;99.90;;;;;;5093942;28;20031;-95
2020/12/10 08:51:21;;;;;;;12.13;9.25;;;7.90;99.90;;;;;;5093678;28;20024;-94
2020/12/10 08:53:49;;;;;;;13.15;9.32;;;9.10;99.90;;;;;;5093908;28;20392;-94
2020/12/10 08:56:24;;;;;;;11.63;8.93;;;9.00;99.90;;;;;;5076607;28;20028;-93
2020/12/10 08:58:50;;;;;;;12.95;8.88;;;9.30;99.90;;;;;;5093492;28;20031;-93
2020/12/10 09:01:19;;;;;;;12.32;8.43;;;9.60;99.90;;;;;;5093414;28;20073;-93
2020/12/10 09:03:45;;;;;;;11.90;8.85;;;9.90;99.90;;;;;;5093253;28;20038;-93
2020/12/10 09:06:18;;;;;;;11.77;9.23;;;10.50;99.90;;;;;;5093321;28;20020;-93
2020/12/10 09:08:45;;;;;;;14.45;9.10;;;10.80;99.90;;;;;;5093257;28;20036;-93
2020/12/10 09:11:10;;;;;;;12.68;9.10;;;11.80;99.90;;;;;;5092824;28;20032;-93
2020/12/10 09:13:37;;;;;;;11.45;8.30;;;11.50;99.90;;;;;;5076154;28;20055;-93
2020/12/10 09:16:18;;;;;;;11.25;8.93;;;10.20;99.90;;;;;;5092875;28;20028;-93
2020/12/10 09:18:52;;;;;;;12.55;8.68;;;8.70;99.90;;;;;;5094215;28;20031;-93
2020/12/10 09:21:19;;;;;;;12.90;8.95;;;7.70;99.90;;;;;;5094182;28;20039;-93
2020/12/10 09:23:45;;;;;;;12.98;9.55;;;7.10;99.90;;;;;;5093008;28;20020;-93
2020/12/10 09:26:20;;;;;;;12.25;9.10;;;7.30;99.90;;;;;;5092977;28;20032;-93
2020/12/10 09:28:47;;;;;;;11.80;9.18;;;6.50;99.90;;;;;;5076343;28;20035;-93
2020/12/10 09:31:13;;;;;;;12.55;10.20;;;6.60;99.90;;;;;;5093130;28;20028;-94
2020/12/10 09:33:40;;;;;;;15.98;10.63;;;6.20;99.90;;;;;;5076370;28;20031;-93
2020/12/10 09:36:06;;;;;;;15.85;9.45;;;6.10;99.90;;;;;;5093554;28;20032;-93
2020/12/10 09:38:40;;;;;;;13.00;9.68;;;6.20;99.90;;;;;;5093040;28;20031;-93
2020/12/10 09:41:07;;;;;;;16.15;9.95;;;6.00;99.90;;;;;;5076035;28;20036;-93
2020/12/10 09:43:33;;;;;;;15.43;10.32;;;6.10;99.90;;;;;;5092515;28;20028;-93
2020/12/10 09:46:06;;;;;;;14.05;9.88;;;6.60;99.90;;;;;;5094035;28;20145;-93
2020/12/10 09:48:46;;;;;;;11.90;9.60;;;6.10;99.90;;;;;;5093557;28;20032;-93
2020/12/10 09:51:12;;;;;;;14.30;10.65;;;6.10;99.90;;;;;;5092675;28;20485;-93
2020/12/10 09:53:43;;;;;;;12.73;10.40;;;6.10;99.90;;;;;;5092429;28;20035;-92
2020/12/10 09:56:33;;;;;;;14.57;10.48;;;6.20;99.90;;;;;;5096303;28;20078;-92
2020/12/10 09:58:54;;;;;;;15.32;10.55;;;6.20;99.90;;;;;;5097788;28;20024;-92
2020/12/10 10:01:20;;;;;;;12.65;9.63;;;6.20;99.90;;;;;;5111454;28;20491;-92
2020/12/10 10:03:45;;;;;;;12.73;9.80;;;6.10;99.90;;;;;;5116918;28;20031;-92
2020/12/10 10:06:13;;;;;;;14.10;10.35;;;6.00;99.90;;;;;;5116775;28;20027;-92
2020/12/10 10:09:04;;;;;;;12.30;9.27;;;6.20;99.90;;;;;;5082165;28;20036;-92
2020/12/10 10:11:31;;;;;;;12.88;9.50;;;6.10;99.90;;;;;;5077419;28;20100;-92
2020/12/10 10:13:56;;;;;;;13.65;9.88;;;6.40;99.90;;;;;;5076015;28;20098;-92
2020/12/10 10:16:31;;;;;;;16.67;10.27;;;7.00;99.90;;;;;;5092734;28;20025;-92
2020/12/10 10:18:58;;;;;;;13.18;10.45;;;6.50;99.90;;;;;;5093268;28;20361;-92
2020/12/10 10:21:26;;;;;;;12.05;9.25;;;6.70;99.90;;;;;;5092458;28;20071;-92
2020/12/10 10:23:53;;;;;;;10.63;8.18;;;6.50;99.90;;;;;;5075490;28;20032;-92
2020/12/10 10:26:19;;;;;;;9.65;7.90;;;6.30;99.90;;;;;;5075932;28;20059;-92
2020/12/10 10:29:07;;;;;;;10.82;8.38;;;6.80;99.90;;;;;;5076529;28;20094;-92
2020/12/10 10:31:34;;;;;;;11.85;8.35;;;6.10;99.90;;;;;;5062043;28;20129;-92
2020/12/10 10:34:00;;;;;;;10.35;8.82;;;6.40;99.90;;;;;;5092599;28;20025;-92
2020/12/10 10:36:25;;;;;;;12.27;8.13;;;6.10;99.90;;;;;;5092282;28;20570;-92
2020/12/10 10:38:51;;;;;;;13.40;8.57;;;6.00;99.90;;;;;;5092514;28;20016;-91
2020/12/10 10:41:17;;;;;;;11.52;7.90;;;6.50;99.90;;;;;;5092206;28;20415;-91
2020/12/10 10:43:48;;;;;;;9.93;8.10;;;5.90;99.90;;;;;;5092210;28;20029;-92
2020/12/10 10:46:18;;;;;;;12.75;8.48;;;5.80;99.90;;;;;;5092258;28;20024;-91
2020/12/10 10:48:45;;;;;;;12.73;8.32;;;5.80;99.90;;;;;;5092191;28;20032;-91
2020/12/10 10:51:12;;;;;;;11.68;8.20;;;5.90;99.90;;;;;;5075059;28;20484;-91
2020/12/10 10:53:39;;;;;;;12.60;8.27;;;5.80;99.90;;;;;;5058610;28;20511;-92
2020/12/10 10:56:06;;;;;;;11.10;7.88;;;5.80;99.90;;;;;;5075073;28;20032;-91
2020/12/10 10:58:40;;;;;;;10.80;8.45;;;5.90;99.90;;;;;;5091778;28;20020;-91
2020/12/10 11:01:26;;;;;;;9.95;7.55;;;6.20;99.90;;;;;;5078432;28;20123;-91
2020/12/10 11:03:53;;;;;;;10.20;8.10;;;6.30;99.90;;;;;;5095217;28;20108;-91
2020/12/10 11:06:19;;;;;;;11.02;7.63;;;6.20;99.90;;;;;;5077246;28;20032;-91
2020/12/10 11:08:46;;;;;;;7.97;7.00;;;6.40;99.90;;;;;;5096077;28;20491;-91
2020/12/10 11:11:23;;;;;;;12.75;7.35;;;6.30;99.90;;;;;;5094321;28;20421;-91
2020/12/10 11:13:50;;;;;;;9.88;6.82;;;6.20;99.90;;;;;;5095047;28;20502;-91
2020/12/10 11:16:16;;;;;;;10.00;7.35;;;6.10;99.90;;;;;;5095078;28;20024;-91
2020/12/10 11:18:52;;;;;;;9.68;6.97;;;6.10;99.90;;;;;;5094763;28;20042;-91
2020/12/10 11:21:24;;;;;;;9.63;7.28;;;6.10;99.90;;;;;;5076313;28;20097;-91
2020/12/10 11:23:52;;;;;;;8.10;6.80;;;6.20;99.90;;;;;;5095787;28;20024;-91
2020/12/10 11:26:18;;;;;;;9.68;6.97;;;6.20;99.90;;;;;;5077882;28;20062;-91
2020/12/10 11:29:03;;;;;;;9.05;6.38;;;6.40;99.90;;;;;;5094754;28;20020;-91
2020/12/10 11:31:29;;;;;;;12.65;7.20;;;6.30;99.90;;;;;;5094486;28;20099;-91
2020/12/10 11:33:55;;;;;;;10.45;7.00;;;6.40;99.90;;;;;;5095784;28;20073;-91
2020/12/10 11:36:21;;;;;;;9.07;6.63;;;6.60;99.90;;;;;;5094487;28;20016;-91
2020/12/10 11:38:46;;;;;;;8.93;6.47;;;6.90;99.90;;;;;;5094420;28;20021;-91
2020/12/10 11:41:12;;;;;;;9.25;7.03;;;7.10;99.90;;;;;;5094603;28;20028;-91
2020/12/10 11:43:58;;;;;;;12.20;7.35;;;7.00;99.90;;;;;;5094828;28;20020;-91
2020/12/10 11:46:23;;;;;;;10.13;6.90;;;6.70;99.90;;;;;;5093771;28;20036;-91
2020/12/10 11:48:49;;;;;;;9.10;6.28;;;6.70;99.90;;;;;;5094065;28;20030;-91
2020/12/10 11:51:16;;;;;;;9.55;6.40;;;7.20;99.90;;;;;;5093789;28;20404;-91
2020/12/10 11:53:43;;;;;;;10.60;6.80;;;7.50;99.90;;;;;;5093797;28;20480;-91
2020/12/10 11:56:09;;;;;;;9.18;5.93;;;7.90;99.90;;;;;;5095416;28;20095;-91
2020/12/10 11:58:35;;;;;;;8.95;6.28;;;8.20;99.90;;;;;;5094006;28;20579;-91
2020/12/10 12:01:15;;;;;;;8.65;6.05;;;8.40;99.90;;;;;;5106180;28;20099;-91
2020/12/10 12:03:41;;;;;;;7.38;6.38;;;8.70;99.90;;;;;;5114146;28;20023;-91
2020/12/10 12:06:08;;;;;;;10.18;6.32;;;9.00;99.90;;;;;;5114329;28;20096;-91
2020/12/10 12:08:35;;;;;;;9.05;5.93;;;9.10;99.90;;;;;;5115616;28;20035;-91
2020/12/10 12:11:02;;;;;;;7.88;5.80;;;8.70;99.90;;;;;;5113690;28;20036;-91
2020/12/10 12:13:28;;;;;;;13.80;6.20;;;8.60;99.90;;;;;;5114033;28;20047;-91
2020/12/10 12:15:54;;;;;;;7.22;5.70;;;8.30;99.90;;;;;;5113932;28;20361;-91
2020/12/10 12:18:41;;;;;;;7.32;5.53;;;8.20;99.90;;;;;;5113433;28;20030;-91
2020/12/10 12:21:06;;;;;;;7.40;5.40;;;8.40;99.90;;;;;;5114050;28;20024;-91
2020/12/10 12:23:34;;;;;;;7.63;5.45;;;8.30;99.90;;;;;;5114040;28;20034;-90
2020/12/10 12:26:27;;;;;;;7.72;5.38;;;7.80;99.90;;;;;;5096200;28;20046;-90
2020/12/10 12:28:52;;;;;;;8.73;6.15;;;7.80;99.90;;;;;;5113895;28;20038;-91
2020/12/10 12:31:26;;;;;;;9.73;6.47;;;7.50;99.90;;;;;;5113455;28;20028;-91
2020/12/10 12:34:11;;;;;;;9.98;6.32;;;7.50;99.90;;;;;;5097597;28;20107;-91
2020/12/10 12:37:01;;;;;;;8.98;5.90;;;7.50;99.90;;;;;;5113643;28;20075;-91
2020/12/10 12:39:26;;;;;;;7.75;6.07;;;7.30;99.90;;;;;;5113926;28;20019;-91
2020/12/10 12:41:53;;;;;;;7.63;5.78;;;8.00;99.90;;;;;;5113388;28;20031;-91
2020/12/10 12:44:18;;;;;;;7.60;6.00;;;7.30;99.90;;;;;;5113441;28;20024;-91
2020/12/10 12:46:50;;;;;;;8.68;5.63;;;7.50;99.90;;;;;;5113398;28;20055;-91
2020/12/10 12:49:30;;;;;;;7.57;6.20;;;6.90;99.90;;;;;;5097023;28;20521;-91
2020/12/10 12:51:56;;;;;;;8.32;5.75;;;7.20;99.90;;;;;;5113359;28;20050;-91
2020/12/10 12:54:23;;;;;;;10.20;6.43;;;7.00;99.90;;;;;;5096308;28;20023;-91
2020/12/10 12:56:49;;;;;;;12.45;6.70;;;7.10;99.90;;;;;;5113128;28;20479;-91
2020/12/10 12:59:15;;;;;;;10.30;6.78;;;7.20;99.90;;;;;;5113188;28;20024;-90
2020/12/10 13:02:04;;;;;;;8.27;6.43;;;7.10;99.90;;;;;;5094627;28;20032;-91
2020/12/10 13:04:29;;;;;;;8.48;6.18;;;6.70;99.90;;;;;;5092580;28;20115;-91